Time;durP1;ratioP1;P1;durP2;ratioP2;P2;SDS_P1;SDS_P2;PMS_P1;PMS_P2;Temp;Humidity;BMP_temperature;BMP_pressure;BME280_temperature;BME280_humidity;BME280_pressure;Samples;Min_cycle;Max_cycle;Signal;HPM_P1;HPM_P2
2022/05/14 00:03:38;;;;;;;3.38;0.90;;;;;;;;;;8309546;28;20792;-58
2022/05/14 00:07:38;;;;;;;5.28;1.00;;;;;;;;;;8309614;28;20115;-57
2022/05/14 00:15:57;;;;;;;2.05;0.88;;;;;;;;;;8308865;28;20101;-57
2022/05/14 00:19:57;;;;;;;1.83;0.90;;;;;;;;;;8305596;28;20025;-59
2022/05/14 00:23:58;;;;;;;3.65;0.90;;;;;;;;;;8308608;28;20501;-58
2022/05/14 00:27:58;;;;;;;1.23;0.80;;;;;;;;;;8308230;28;20013;-57
2022/05/14 00:31:59;;;;;;;3.25;0.90;;;;;;;;;;8306865;28;20037;-57
2022/05/14 00:35:59;;;;;;;5.03;1.00;;;;;;;;;;8306632;28;20025;-57
2022/05/14 00:39:59;;;;;;;2.38;0.80;;;;;;;;;;8306960;28;20880;-59
2022/05/14 00:43:59;;;;;;;1.27;0.77;;;;;;;;;;8310057;28;20025;-59
2022/05/14 00:48:01;;;;;;;2.20;0.90;;;;;;;;;;8307726;28;20037;-57
2022/05/14 00:52:02;;;;;;;1.75;0.88;;;;;;;;;;8306726;28;20961;-57
2022/05/14 00:56:03;;;;;;;2.53;1.15;;;;;;;;;;8309789;28;20698;-57
2022/05/14 01:00:06;;;;;;;1.73;0.80;;;;;;;;;;8307693;28;20192;-58
2022/05/14 01:04:07;;;;;;;1.40;0.80;;;;;;;;;;8308397;28;20053;-57
2022/05/14 01:08:07;;;;;;;2.30;1.00;;;;;;;;;;8308087;28;20021;-57
2022/05/14 01:12:08;;;;;;;3.97;0.87;;;;;;;;;;8308014;28;20021;-57
2022/05/14 01:16:08;;;;;;;2.08;1.00;;;;;;;;;;8306738;28;20511;-58
2022/05/14 01:20:09;;;;;;;1.42;0.68;;;;;;;;;;8307936;28;20075;-57
2022/05/14 01:28:31;;;;;;;1.73;0.80;;;;;;;;;;8303971;28;20068;-57
2022/05/14 01:32:31;;;;;;;1.92;0.80;;;;;;;;;;8305870;28;20033;-56
2022/05/14 01:36:32;;;;;;;4.53;1.20;;;;;;;;;;8305887;28;20036;-57
2022/05/14 01:40:33;;;;;;;1.40;1.13;;;;;;;;;;8306887;28;20151;-57
2022/05/14 01:44:33;;;;;;;0.77;0.70;;;;;;;;;;8307704;28;20028;-59
2022/05/14 01:48:34;;;;;;;3.13;0.82;;;;;;;;;;8306334;28;20041;-57
2022/05/14 01:52:34;;;;;;;1.20;0.90;;;;;;;;;;8307112;28;20087;-58
2022/05/14 01:56:34;;;;;;;2.07;0.97;;;;;;;;;;8307708;28;20619;-57
2022/05/14 02:00:35;;;;;;;1.95;0.88;;;;;;;;;;8304358;28;20852;-57
2022/05/14 02:04:35;;;;;;;1.77;1.00;;;;;;;;;;8303613;28;20140;-59
2022/05/14 02:08:35;;;;;;;1.52;0.85;;;;;;;;;;8306012;28;20115;-56
2022/05/14 02:12:36;;;;;;;2.42;1.00;;;;;;;;;;8305131;28;20065;-57
2022/05/14 02:16:36;;;;;;;3.10;1.30;;;;;;;;;;8304830;28;20068;-57
2022/05/14 02:20:36;;;;;;;2.30;1.00;;;;;;;;;;8309352;28;20519;-57
2022/05/14 02:24:37;;;;;;;2.28;1.02;;;;;;;;;;8311105;28;20027;-58
2022/05/14 02:28:38;;;;;;;4.18;1.17;;;;;;;;;;8311020;28;20386;-59
2022/05/14 02:32:38;;;;;;;1.60;1.00;;;;;;;;;;8309748;28;20100;-58
2022/05/14 02:36:39;;;;;;;3.03;1.05;;;;;;;;;;8309420;28;20020;-59
2022/05/14 02:40:39;;;;;;;2.47;1.00;;;;;;;;;;8310010;28;20095;-59
2022/05/14 02:44:39;;;;;;;3.17;1.30;;;;;;;;;;8309426;28;20375;-57
2022/05/14 02:48:40;;;;;;;2.00;0.90;;;;;;;;;;8313064;28;20357;-59
2022/05/14 02:52:40;;;;;;;2.53;1.00;;;;;;;;;;8309023;28;20029;-59
2022/05/14 02:56:40;;;;;;;2.83;1.20;;;;;;;;;;8311727;28;20060;-57
2022/05/14 03:00:41;;;;;;;3.03;1.13;;;;;;;;;;8307459;28;20370;-58
2022/05/14 03:04:44;;;;;;;2.93;1.03;;;;;;;;;;8310285;28;20029;-58
2022/05/14 03:08:44;;;;;;;1.42;0.90;;;;;;;;;;8309810;28;20294;-59
2022/05/14 03:12:44;;;;;;;2.17;1.10;;;;;;;;;;8311257;28;20025;-58
2022/05/14 03:16:45;;;;;;;2.33;1.17;;;;;;;;;;8309635;28;20064;-57
2022/05/14 03:20:46;;;;;;;3.55;1.20;;;;;;;;;;8307914;28;20103;-57
2022/05/14 03:24:46;;;;;;;2.55;1.13;;;;;;;;;;8311391;28;20095;-57
2022/05/14 03:28:48;;;;;;;1.70;1.45;;;;;;;;;;8308711;28;20029;-57
2022/05/14 03:32:48;;;;;;;2.30;0.90;;;;;;;;;;8309431;28;20569;-59
2022/05/14 03:36:49;;;;;;;3.55;1.10;;;;;;;;;;8309407;28;20052;-59
2022/05/14 03:40:49;;;;;;;3.03;1.20;;;;;;;;;;8310462;28;20039;-57
2022/05/14 03:44:49;;;;;;;4.03;0.90;;;;;;;;;;8310058;28;20528;-57
2022/05/14 03:48:50;;;;;;;2.53;1.00;;;;;;;;;;8309238;28;20764;-59
2022/05/14 03:52:50;;;;;;;2.40;1.20;;;;;;;;;;8307251;28;20323;-63
2022/05/14 03:56:50;;;;;;;3.92;1.38;;;;;;;;;;8311119;28;20033;-57
2022/05/14 04:00:51;;;;;;;2.72;1.25;;;;;;;;;;8305439;28;20045;-58
2022/05/14 04:04:51;;;;;;;3.17;1.17;;;;;;;;;;8308964;28;20021;-59
2022/05/14 04:08:52;;;;;;;4.50;1.27;;;;;;;;;;8309802;28;20116;-57
2022/05/14 04:12:53;;;;;;;2.83;1.27;;;;;;;;;;8307327;28;20057;-58
2022/05/14 04:16:53;;;;;;;2.63;1.17;;;;;;;;;;8306925;28;20041;-57
2022/05/14 04:20:55;;;;;;;3.42;1.42;;;;;;;;;;8309596;28;20041;-57
2022/05/14 04:24:55;;;;;;;2.13;1.15;;;;;;;;;;8308982;28;20032;-59
2022/05/14 04:28:56;;;;;;;2.58;1.15;;;;;;;;;;8308017;28;20159;-57
2022/05/14 04:32:56;;;;;;;3.13;1.10;;;;;;;;;;8308333;28;20033;-57
2022/05/14 04:36:56;;;;;;;6.10;1.27;;;;;;;;;;8306762;28;20029;-59
2022/05/14 04:40:56;;;;;;;2.37;1.13;;;;;;;;;;8305339;28;20025;-57
2022/05/14 04:44:57;;;;;;;2.47;1.27;;;;;;;;;;8307753;28;20438;-57
2022/05/14 04:48:58;;;;;;;4.70;1.27;;;;;;;;;;8305551;28;20038;-57
2022/05/14 04:52:59;;;;;;;2.30;1.15;;;;;;;;;;8308018;28;20168;-58
2022/05/14 04:56:59;;;;;;;2.10;1.20;;;;;;;;;;8307376;28;20509;-58
2022/05/14 05:00:59;;;;;;;3.07;1.33;;;;;;;;;;8306622;28;20045;-58
2022/05/14 05:04:59;;;;;;;8.18;1.60;;;;;;;;;;8308738;28;20390;-57
2022/05/14 05:09:00;;;;;;;2.25;1.38;;;;;;;;;;8309755;28;20030;-59
2022/05/14 05:13:00;;;;;;;5.63;1.63;;;;;;;;;;8306790;28;20067;-58
2022/05/14 05:17:00;;;;;;;4.03;1.40;;;;;;;;;;8306968;28;20043;-57
2022/05/14 05:21:01;;;;;;;5.05;1.70;;;;;;;;;;8308922;28;20129;-58
2022/05/14 05:25:01;;;;;;;3.78;1.45;;;;;;;;;;8308058;28;20029;-58
2022/05/14 05:29:01;;;;;;;4.05;1.60;;;;;;;;;;8307597;28;20063;-58
2022/05/14 05:33:02;;;;;;;3.53;1.45;;;;;;;;;;8307725;28;20455;-58
2022/05/14 05:37:02;;;;;;;4.18;1.70;;;;;;;;;;8308133;28;20021;-58
2022/05/14 05:41:02;;;;;;;2.60;1.37;;;;;;;;;;8308381;28;20070;-59
2022/05/14 05:45:03;;;;;;;5.30;1.45;;;;;;;;;;8306479;28;20017;-60
2022/05/14 05:49:05;;;;;;;5.75;1.40;;;;;;;;;;8306149;28;20832;-58
2022/05/14 05:53:05;;;;;;;3.05;1.20;;;;;;;;;;8312256;28;20565;-58
2022/05/14 05:57:05;;;;;;;4.20;1.45;;;;;;;;;;8314384;28;20173;-59
2022/05/14 06:01:06;;;;;;;3.30;1.17;;;;;;;;;;8312668;28;20159;-59
2022/05/14 06:05:06;;;;;;;4.10;1.52;;;;;;;;;;8313228;28;20025;-59
2022/05/14 06:09:08;;;;;;;4.22;1.75;;;;;;;;;;8315678;28;20056;-59
2022/05/14 06:13:11;;;;;;;4.70;1.45;;;;;;;;;;8314914;28;20026;-59
2022/05/14 06:17:11;;;;;;;3.85;1.58;;;;;;;;;;8314853;28;20095;-59
2022/05/14 06:21:12;;;;;;;3.90;1.37;;;;;;;;;;8313817;28;20022;-60
2022/05/14 06:25:12;;;;;;;5.03;1.37;;;;;;;;;;8316643;28;20028;-60
2022/05/14 06:29:12;;;;;;;4.20;1.35;;;;;;;;;;8312540;28;20204;-60
2022/05/14 06:33:13;;;;;;;2.80;1.38;;;;;;;;;;8311893;28;20061;-59
2022/05/14 06:37:14;;;;;;;4.40;1.40;;;;;;;;;;8313247;28;20017;-60
2022/05/14 06:41:15;;;;;;;4.55;1.83;;;;;;;;;;8312416;28;20029;-59
2022/05/14 06:45:15;;;;;;;3.65;1.33;;;;;;;;;;8310593;28;20033;-59
2022/05/14 06:49:16;;;;;;;2.55;1.10;;;;;;;;;;8314736;28;20497;-60
2022/05/14 06:53:17;;;;;;;3.78;1.30;;;;;;;;;;8311243;28;20901;-59
2022/05/14 06:57:18;;;;;;;7.10;1.10;;;;;;;;;;8312410;28;20033;-59
2022/05/14 07:01:19;;;;;;;5.43;1.23;;;;;;;;;;8309895;28;20049;-59
2022/05/14 07:09:38;;;;;;;3.70;1.50;;;;;;;;;;8312195;28;20032;-60
2022/05/14 07:13:38;;;;;;;4.20;1.20;;;;;;;;;;8311215;28;20097;-59
2022/05/14 07:17:38;;;;;;;3.55;1.20;;;;;;;;;;8310305;28;20037;-60
2022/05/14 07:21:40;;;;;;;3.03;1.20;;;;;;;;;;8311383;28;20148;-60
2022/05/14 07:25:40;;;;;;;2.65;1.17;;;;;;;;;;8312044;28;20021;-59
2022/05/14 07:29:42;;;;;;;2.17;1.10;;;;;;;;;;8311270;28;20025;-59
2022/05/14 07:33:42;;;;;;;4.40;1.50;;;;;;;;;;8310509;28;20057;-59
2022/05/14 07:37:44;;;;;;;4.68;1.30;;;;;;;;;;8308417;28;20021;-59
2022/05/14 07:41:46;;;;;;;4.13;1.33;;;;;;;;;;8304801;28;20296;-59
2022/05/14 07:45:47;;;;;;;;;;;;;;;;;;8308936;28;20179;-60
2022/05/14 07:49:47;;;;;;;4.47;1.50;;;;;;;;;;8306894;28;20039;-59
2022/05/14 07:53:48;;;;;;;5.45;1.42;;;;;;;;;;8307185;28;20053;-59
2022/05/14 07:57:48;;;;;;;4.72;1.20;;;;;;;;;;8305066;28;20032;-60
2022/05/14 08:01:49;;;;;;;3.15;1.27;;;;;;;;;;8307757;28;20045;-60
2022/05/14 08:05:49;;;;;;;6.78;1.20;;;;;;;;;;8307787;28;20313;-59
2022/05/14 08:09:50;;;;;;;3.08;1.30;;;;;;;;;;8310894;28;20025;-59
2022/05/14 08:13:50;;;;;;;5.03;1.47;;;;;;;;;;8305545;28;20971;-59
2022/05/14 08:17:51;;;;;;;3.83;1.50;;;;;;;;;;8303663;28;20048;-59
2022/05/14 08:26:10;;;;;;;3.65;1.20;;;;;;;;;;8305199;28;20222;-59
2022/05/14 08:30:12;;;;;;;3.85;1.20;;;;;;;;;;8303932;28;20656;-59
2022/05/14 08:34:12;;;;;;;2.75;1.27;;;;;;;;;;8303699;28;20093;-60
2022/05/14 08:38:13;;;;;;;2.70;1.30;;;;;;;;;;8303448;28;20036;-60
2022/05/14 08:42:13;;;;;;;6.05;1.50;;;;;;;;;;8304049;28;20396;-60
2022/05/14 08:46:15;;;;;;;3.22;1.40;;;;;;;;;;8302308;28;20038;-59
2022/05/14 08:50:15;;;;;;;5.03;1.50;;;;;;;;;;8304376;28;20035;-59
2022/05/14 08:54:16;;;;;;;3.80;1.37;;;;;;;;;;8305560;28;20120;-59
2022/05/14 08:58:31;;;;;;;7.70;1.38;;;;;;;;;;8305251;28;20045;-59
2022/05/14 09:02:33;;;;;;;4.22;1.60;;;;;;;;;;8302235;28;20045;-59
2022/05/14 09:06:33;;;;;;;3.28;1.38;;;;;;;;;;8302359;28;20062;-60
2022/05/14 09:10:35;;;;;;;3.47;1.27;;;;;;;;;;8302477;28;20033;-60
2022/05/14 09:14:37;;;;;;;3.92;1.48;;;;;;;;;;8304107;28;20029;-59
2022/05/14 09:18:38;;;;;;;;;;;;;;;;;;8302226;28;20502;-59
2022/05/14 09:22:44;;;;;;;2.65;1.30;;;;;;;;;;8302792;28;19963;-60
2022/05/14 09:26:45;;;;;;;4.50;1.30;;;;;;;;;;8302298;28;20144;-59
2022/05/14 09:30:52;;;;;;;6.38;1.55;;;;;;;;;;8301994;28;20032;-59
2022/05/14 09:35:02;;;;;;;3.67;1.50;;;;;;;;;;8301927;28;20100;-61
2022/05/14 09:39:06;;;;;;;3.63;1.38;;;;;;;;;;8304585;28;20063;-59
2022/05/14 09:43:09;;;;;;;3.75;1.33;;;;;;;;;;8302809;28;20422;-59
2022/05/14 09:47:30;;;;;;;4.28;1.33;;;;;;;;;;8303832;28;21078;-59
2022/05/14 09:51:32;;;;;;;2.95;1.35;;;;;;;;;;8303723;28;20530;-59
2022/05/14 09:55:51;;;;;;;4.18;1.40;;;;;;;;;;8303287;28;20784;-60
2022/05/14 10:00:14;;;;;;;3.40;1.38;;;;;;;;;;8302298;28;20036;-60
2022/05/14 10:04:18;;;;;;;4.80;1.35;;;;;;;;;;8298906;28;20041;-59
2022/05/14 10:08:20;;;;;;;2.65;1.30;;;;;;;;;;8304511;28;20045;-59
2022/05/14 10:12:23;;;;;;;3.13;1.38;;;;;;;;;;8301806;28;20041;-59
2022/05/14 10:16:29;;;;;;;3.53;1.33;;;;;;;;;;8300133;28;20041;-59
2022/05/14 10:20:48;;;;;;;3.40;1.40;;;;;;;;;;8302371;28;20115;-59
2022/05/14 10:29:26;;;;;;;3.55;1.40;;;;;;;;;;8303238;28;20032;-61
2022/05/14 10:33:27;;;;;;;4.10;1.30;;;;;;;;;;8303794;28;20100;-59
2022/05/14 10:37:32;;;;;;;3.15;1.30;;;;;;;;;;8301425;28;20025;-59
2022/05/14 10:41:46;;;;;;;2.05;1.10;;;;;;;;;;8307750;28;20452;-59
2022/05/14 10:45:47;;;;;;;3.28;1.38;;;;;;;;;;8308855;28;20108;-59
2022/05/14 10:49:54;;;;;;;2.47;1.20;;;;;;;;;;8307047;28;20025;-60
2022/05/14 10:53:55;;;;;;;6.78;1.73;;;;;;;;;;8307009;28;20039;-59
2022/05/14 10:57:57;;;;;;;5.75;1.08;;;;;;;;;;8306756;28;20033;-59
2022/05/14 11:01:57;;;;;;;1.30;0.95;;;;;;;;;;8308177;28;20051;-59
2022/05/14 11:06:01;;;;;;;3.30;1.30;;;;;;;;;;8308408;28;20021;-59
2022/05/14 11:10:07;;;;;;;3.25;1.20;;;;;;;;;;8308892;28;20063;-59
2022/05/14 11:14:08;;;;;;;3.92;1.10;;;;;;;;;;8306881;28;20075;-61
2022/05/14 11:18:10;;;;;;;2.57;1.03;;;;;;;;;;8308305;28;20044;-59
2022/05/14 11:22:18;;;;;;;3.35;1.20;;;;;;;;;;8309325;28;20114;-59
2022/05/14 11:26:18;;;;;;;4.38;1.00;;;;;;;;;;8312911;28;20025;-59
2022/05/14 11:30:28;;;;;;;2.35;1.10;;;;;;;;;;8303533;28;20040;-59
2022/05/14 11:34:29;;;;;;;1.45;0.85;;;;;;;;;;8306661;28;20769;-60
2022/05/14 11:38:32;;;;;;;2.63;1.10;;;;;;;;;;8307733;28;20434;-66
2022/05/14 11:42:32;;;;;;;3.40;1.10;;;;;;;;;;8307042;28;20032;-60
2022/05/14 11:46:33;;;;;;;4.83;1.27;;;;;;;;;;8308467;28;20041;-59
2022/05/14 11:50:40;;;;;;;1.95;1.00;;;;;;;;;;8306583;28;20033;-59
2022/05/14 11:54:44;;;;;;;1.48;0.98;;;;;;;;;;8309584;28;20021;-59
2022/05/14 11:59:14;;;;;;;2.53;1.00;;;;;;;;;;8308885;28;20163;-60
2022/05/14 12:03:44;;;;;;;4.18;1.05;;;;;;;;;;8262410;28;20169;-59
2022/05/14 12:07:59;;;;;;;2.10;1.15;;;;;;;;;;8261697;28;20486;-60
2022/05/14 12:12:02;;;;;;;1.73;0.90;;;;;;;;;;8271283;28;20307;-59
2022/05/14 12:16:03;;;;;;;2.25;1.00;;;;;;;;;;8280210;28;20033;-59
2022/05/14 12:20:04;;;;;;;2.87;1.13;;;;;;;;;;8305776;28;20029;-59
2022/05/14 12:24:04;;;;;;;3.80;1.27;;;;;;;;;;8305545;28;20060;-59
2022/05/14 12:28:05;;;;;;;3.58;1.00;;;;;;;;;;8306017;28;20040;-59
2022/05/14 12:36:49;;;;;;;4.05;1.00;;;;;;;;;;8304219;28;20044;-59
2022/05/14 12:40:49;;;;;;;2.80;1.10;;;;;;;;;;8304817;28;20078;-59
2022/05/14 12:44:51;;;;;;;2.75;1.08;;;;;;;;;;8306156;28;20535;-60
2022/05/14 12:48:54;;;;;;;2.38;0.95;;;;;;;;;;8306207;28;20028;-59
2022/05/14 12:52:56;;;;;;;4.13;1.00;;;;;;;;;;8304589;28;20194;-59
2022/05/14 12:56:58;;;;;;;2.25;1.13;;;;;;;;;;8302924;28;21383;-59
2022/05/14 13:01:00;;;;;;;3.28;0.90;;;;;;;;;;8298521;28;20094;-59
2022/05/14 13:05:18;;;;;;;3.10;1.20;;;;;;;;;;8302155;28;20017;-59
2022/05/14 13:09:22;;;;;;;2.03;1.00;;;;;;;;;;8302763;28;20037;-59
2022/05/14 13:13:34;;;;;;;1.48;0.90;;;;;;;;;;8299225;28;20437;-59
2022/05/14 13:17:34;;;;;;;2.58;1.00;;;;;;;;;;8300024;28;20477;-59
2022/05/14 13:21:35;;;;;;;1.67;0.90;;;;;;;;;;8300283;28;20021;-59
2022/05/14 13:25:36;;;;;;;;;;;;;;;;;;8299934;28;20049;-59
2022/05/14 13:29:38;;;;;;;2.03;1.08;;;;;;;;;;8299181;28;20525;-59
2022/05/14 13:33:38;;;;;;;0.83;0.80;;;;;;;;;;8298393;28;20075;-59
2022/05/14 13:37:41;;;;;;;2.70;1.20;;;;;;;;;;8299492;28;20056;-59
2022/05/14 13:41:44;;;;;;;1.50;1.00;;;;;;;;;;8299915;28;20094;-59
2022/05/14 13:45:45;;;;;;;3.53;0.93;;;;;;;;;;8298853;28;20120;-59
2022/05/14 13:49:50;;;;;;;2.93;1.00;;;;;;;;;;8298110;28;20510;-59
2022/05/14 13:53:52;;;;;;;3.00;0.90;;;;;;;;;;8300220;28;20276;-59
2022/05/14 13:57:54;;;;;;;1.30;0.93;;;;;;;;;;8298543;28;20485;-59
2022/05/14 14:02:07;;;;;;;3.33;1.10;;;;;;;;;;8297234;28;20508;-59
2022/05/14 14:06:07;;;;;;;2.20;1.00;;;;;;;;;;8296856;28;20048;-59
2022/05/14 14:10:16;;;;;;;2.40;0.90;;;;;;;;;;8299513;28;20025;-59
2022/05/14 14:14:16;;;;;;;5.47;1.00;;;;;;;;;;8303812;28;20022;-59
2022/05/14 14:18:17;;;;;;;2.13;0.90;;;;;;;;;;8304863;28;20047;-59
2022/05/14 14:22:18;;;;;;;1.93;1.00;;;;;;;;;;8306340;28;20082;-59
2022/05/14 14:26:18;;;;;;;3.57;1.00;;;;;;;;;;8306784;28;20031;-59
2022/05/14 14:30:19;;;;;;;1.70;1.00;;;;;;;;;;8303349;28;20684;-59
2022/05/14 14:34:19;;;;;;;2.05;1.00;;;;;;;;;;8305778;28;20048;-59
2022/05/14 14:38:19;;;;;;;1.20;1.00;;;;;;;;;;8305363;28;20033;-59
2022/05/14 14:42:20;;;;;;;3.45;1.10;;;;;;;;;;8304764;28;20025;-59
2022/05/14 14:46:20;;;;;;;1.58;0.90;;;;;;;;;;8303086;28;20037;-60
2022/05/14 14:50:22;;;;;;;2.20;0.90;;;;;;;;;;8309266;28;20024;-60
2022/05/14 14:54:22;;;;;;;3.13;1.00;;;;;;;;;;8306440;28;20091;-58
2022/05/14 14:58:22;;;;;;;2.28;1.00;;;;;;;;;;8301494;28;21136;-59
2022/05/14 15:02:28;;;;;;;5.60;1.20;;;;;;;;;;8300201;28;20064;-59
2022/05/14 15:06:29;;;;;;;2.05;1.05;;;;;;;;;;8299176;28;20691;-59
2022/05/14 15:10:29;;;;;;;3.55;0.90;;;;;;;;;;8305831;28;20454;-60
2022/05/14 15:14:30;;;;;;;2.53;1.30;;;;;;;;;;8306348;28;20547;-59
2022/05/14 15:18:31;;;;;;;3.35;1.10;;;;;;;;;;8305834;28;20504;-60
2022/05/14 15:22:31;;;;;;;1.88;1.00;;;;;;;;;;8307208;28;20716;-60
2022/05/14 15:26:31;;;;;;;2.05;1.00;;;;;;;;;;8306940;28;20017;-59
2022/05/14 15:30:32;;;;;;;1.93;0.90;;;;;;;;;;8305745;28;20038;-59
2022/05/14 15:34:32;;;;;;;2.20;0.90;;;;;;;;;;8309014;28;20029;-59
2022/05/14 15:38:33;;;;;;;1.97;1.00;;;;;;;;;;8308382;28;20431;-59
2022/05/14 15:42:48;;;;;;;2.35;1.00;;;;;;;;;;8307131;28;20020;-59
2022/05/14 15:46:51;;;;;;;2.05;1.00;;;;;;;;;;8300422;28;20041;-59
2022/05/14 15:50:51;;;;;;;2.25;0.90;;;;;;;;;;8299044;28;20876;-59
2022/05/14 15:54:51;;;;;;;3.25;1.02;;;;;;;;;;8299947;28;20443;-59
2022/05/14 15:58:52;;;;;;;2.40;1.00;;;;;;;;;;8298516;28;20074;-59
2022/05/14 16:02:55;;;;;;;3.17;1.10;;;;;;;;;;8297960;28;20929;-59
2022/05/14 16:06:56;;;;;;;1.80;1.05;;;;;;;;;;8297431;28;20433;-59
2022/05/14 16:19:41;;;;;;;4.22;1.27;;;;;;;;;;8286697;28;20056;-59
2022/05/14 16:23:41;;;;;;;2.75;1.20;;;;;;;;;;8298593;28;20405;-59
2022/05/14 16:27:41;;;;;;;2.50;1.00;;;;;;;;;;8297353;28;20064;-59
2022/05/14 16:31:43;;;;;;;1.85;1.30;;;;;;;;;;8296735;28;20529;-59
2022/05/14 16:35:44;;;;;;;1.30;1.00;;;;;;;;;;8296984;28;20532;-59
2022/05/14 16:39:44;;;;;;;1.88;0.98;;;;;;;;;;8296097;28;20341;-59
2022/05/14 16:43:45;;;;;;;2.78;1.23;;;;;;;;;;8295622;28;20020;-59
2022/05/14 16:47:45;;;;;;;3.55;0.93;;;;;;;;;;8296452;28;20039;-60
2022/05/14 16:51:47;;;;;;;2.33;0.90;;;;;;;;;;8297954;28;20546;-59
2022/05/14 16:55:47;;;;;;;4.38;1.00;;;;;;;;;;8298315;28;20501;-59
2022/05/14 16:59:47;;;;;;;2.50;1.00;;;;;;;;;;8296228;28;20079;-59
2022/05/14 17:03:47;;;;;;;2.17;1.27;;;;;;;;;;8293791;28;20029;-59
2022/05/14 17:07:48;;;;;;;2.08;0.90;;;;;;;;;;8296429;28;21044;-59
2022/05/14 17:11:49;;;;;;;2.42;1.15;;;;;;;;;;8296036;28;20095;-60
2022/05/14 17:15:49;;;;;;;2.42;1.05;;;;;;;;;;8294927;28;20493;-59
2022/05/14 17:19:49;;;;;;;5.27;1.00;;;;;;;;;;8295396;28;20111;-59
2022/05/14 17:23:49;;;;;;;2.58;1.10;;;;;;;;;;8296657;28;20017;-58
2022/05/14 17:27:50;;;;;;;1.42;0.90;;;;;;;;;;8296625;28;20025;-58
2022/05/14 17:31:50;;;;;;;1.65;0.88;;;;;;;;;;8295143;28;20943;-58
2022/05/14 17:35:51;;;;;;;4.00;1.20;;;;;;;;;;8296953;28;20122;-58
2022/05/14 17:39:51;;;;;;;1.80;0.90;;;;;;;;;;8296523;28;20122;-59
2022/05/14 17:43:51;;;;;;;2.57;0.90;;;;;;;;;;8297800;28;20768;-58
2022/05/14 17:47:53;;;;;;;1.65;1.00;;;;;;;;;;8297902;28;20145;-59
2022/05/14 17:51:53;;;;;;;2.15;1.05;;;;;;;;;;8302592;28;20065;-59
2022/05/14 17:55:53;;;;;;;1.93;1.03;;;;;;;;;;8305616;28;20486;-59
2022/05/14 17:59:53;;;;;;;1.50;1.10;;;;;;;;;;8301284;28;20516;-59
2022/05/14 18:03:57;;;;;;;2.25;1.15;;;;;;;;;;8302520;28;20485;-58
2022/05/14 18:07:58;;;;;;;2.47;1.15;;;;;;;;;;8303724;28;20048;-60
2022/05/14 18:11:58;;;;;;;2.97;1.10;;;;;;;;;;8302566;28;20032;-58
2022/05/14 18:15:58;;;;;;;2.70;1.10;;;;;;;;;;8303369;28;20068;-59
2022/05/14 18:19:59;;;;;;;2.25;0.93;;;;;;;;;;8300186;28;20365;-59
2022/05/14 18:23:59;;;;;;;3.47;1.00;;;;;;;;;;8303022;28;20080;-58
2022/05/14 18:28:01;;;;;;;4.57;1.00;;;;;;;;;;8300888;28;20429;-58
2022/05/14 18:32:04;;;;;;;1.98;0.90;;;;;;;;;;8301548;28;20052;-58
2022/05/14 18:36:04;;;;;;;;;;;;;;;;;;8302899;28;20471;-58
2022/05/14 18:40:06;;;;;;;2.90;1.10;;;;;;;;;;8303585;28;20531;-58
2022/05/14 18:44:07;;;;;;;1.98;0.95;;;;;;;;;;8301482;28;20235;-58
2022/05/14 18:48:08;;;;;;;2.58;1.00;;;;;;;;;;8301717;28;20033;-58
2022/05/14 18:52:08;;;;;;;3.40;1.20;;;;;;;;;;8300540;28;20100;-57
2022/05/14 18:56:08;;;;;;;4.00;1.13;;;;;;;;;;8300094;28;20099;-58
2022/05/14 19:00:09;;;;;;;4.50;1.15;;;;;;;;;;8300212;28;20024;-58
2022/05/14 19:08:28;;;;;;;4.35;1.20;;;;;;;;;;8300856;28;20099;-58
2022/05/14 19:12:28;;;;;;;5.55;1.30;;;;;;;;;;8300916;28;20028;-58
2022/05/14 19:16:28;;;;;;;5.03;1.17;;;;;;;;;;8299881;28;20122;-57
2022/05/14 19:20:29;;;;;;;4.60;1.35;;;;;;;;;;8298421;28;20421;-58
2022/05/14 19:24:29;;;;;;;3.92;1.50;;;;;;;;;;8299966;28;20025;-58
2022/05/14 19:28:29;;;;;;;6.97;1.30;;;;;;;;;;8299952;28;20545;-57
2022/05/14 19:32:29;;;;;;;3.13;1.10;;;;;;;;;;8298877;28;20034;-58
2022/05/14 19:36:30;;;;;;;1.67;0.85;;;;;;;;;;8300225;28;20459;-58
2022/05/14 19:40:43;;;;;;;4.70;1.42;;;;;;;;;;8298841;28;20090;-58
2022/05/14 19:44:46;;;;;;;3.80;1.33;;;;;;;;;;8300095;28;20021;-57
2022/05/14 19:48:47;;;;;;;2.75;1.08;;;;;;;;;;8298565;28;20072;-57
2022/05/14 19:52:47;;;;;;;3.45;1.10;;;;;;;;;;8299228;28;20017;-58
2022/05/14 19:56:47;;;;;;;7.87;1.30;;;;;;;;;;8301111;28;20111;-57
2022/05/14 20:00:48;;;;;;;5.68;1.27;;;;;;;;;;8296123;28;20045;-58
2022/05/14 20:04:48;;;;;;;6.15;1.42;;;;;;;;;;8297602;28;20053;-57
2022/05/14 20:08:49;;;;;;;5.68;1.52;;;;;;;;;;8297784;28;20025;-57
2022/05/14 20:12:49;;;;;;;2.50;1.48;;;;;;;;;;8298113;28;20410;-58
2022/05/14 20:21:10;;;;;;;3.67;1.70;;;;;;;;;;8297041;28;20555;-57
2022/05/14 20:25:12;;;;;;;7.18;1.30;;;;;;;;;;8296262;28;20398;-58
2022/05/14 20:29:12;;;;;;;7.18;1.40;;;;;;;;;;8299897;28;20021;-58
2022/05/14 20:33:13;;;;;;;3.90;1.20;;;;;;;;;;8297358;28;20523;-58
2022/05/14 20:37:13;;;;;;;2.95;1.30;;;;;;;;;;8298582;28;20291;-57
2022/05/14 20:41:15;;;;;;;4.05;1.33;;;;;;;;;;8298974;28;20025;-57
2022/05/14 20:45:16;;;;;;;5.43;2.00;;;;;;;;;;8297795;28;20886;-59
2022/05/14 20:49:16;;;;;;;3.88;1.60;;;;;;;;;;8298721;28;20031;-58
2022/05/14 20:53:17;;;;;;;4.10;1.85;;;;;;;;;;8298029;28;20075;-59
2022/05/14 20:57:17;;;;;;;3.35;1.90;;;;;;;;;;8299752;28;20025;-57
2022/05/14 21:01:17;;;;;;;3.67;1.92;;;;;;;;;;8299676;28;20391;-57
2022/05/14 21:05:18;;;;;;;3.50;1.70;;;;;;;;;;8298989;28;20029;-57
2022/05/14 21:09:19;;;;;;;3.35;1.70;;;;;;;;;;8300143;28;20103;-58
2022/05/14 21:13:19;;;;;;;3.60;2.00;;;;;;;;;;8300782;28;20029;-58
2022/05/14 21:17:19;;;;;;;6.00;2.40;;;;;;;;;;8297715;28;20382;-57
2022/05/14 21:21:19;;;;;;;10.93;5.43;;;;;;;;;;8299667;28;20561;-57
2022/05/14 21:25:23;;;;;;;6.22;3.60;;;;;;;;;;8298474;28;20025;-57
2022/05/14 21:29:23;;;;;;;;;;;;;;;;;;8300078;28;20584;-57
2022/05/14 21:33:24;;;;;;;8.45;3.42;;;;;;;;;;8299456;28;20278;-57
2022/05/14 21:37:37;;;;;;;4.97;2.65;;;;;;;;;;8299309;28;20352;-57
2022/05/14 21:41:37;;;;;;;5.88;2.80;;;;;;;;;;8299038;28;20072;-57
2022/05/14 21:45:39;;;;;;;5.95;2.75;;;;;;;;;;8298117;28;20033;-57
2022/05/14 21:49:39;;;;;;;3.30;2.28;;;;;;;;;;8297815;28;20032;-57
2022/05/14 21:53:39;;;;;;;2.83;2.00;;;;;;;;;;8298213;28;20065;-58
2022/05/14 21:57:39;;;;;;;3.78;1.73;;;;;;;;;;8300016;28;20556;-57
2022/05/14 22:02:00;;;;;;;2.95;1.80;;;;;;;;;;8296983;28;20391;-57
2022/05/14 22:06:00;;;;;;;5.20;2.05;;;;;;;;;;8300320;28;20489;-57
2022/05/14 22:10:00;;;;;;;4.78;2.58;;;;;;;;;;8298993;28;20133;-57
2022/05/14 22:14:00;;;;;;;6.18;2.63;;;;;;;;;;8299162;28;20033;-57
2022/05/14 22:18:01;;;;;;;3.58;1.85;;;;;;;;;;8297702;28;20065;-57
2022/05/14 22:22:01;;;;;;;4.07;2.15;;;;;;;;;;8297121;28;20187;-57
2022/05/14 22:26:03;;;;;;;6.00;2.00;;;;;;;;;;8298317;28;20022;-57
2022/05/14 22:30:04;;;;;;;2.65;1.70;;;;;;;;;;8298888;28;20029;-59
2022/05/14 22:34:04;;;;;;;4.95;2.17;;;;;;;;;;8300010;28;20032;-57
2022/05/14 22:38:04;;;;;;;3.20;1.93;;;;;;;;;;8304856;28;20024;-57
2022/05/14 22:42:04;;;;;;;3.00;1.40;;;;;;;;;;8304258;28;20017;-57
2022/05/14 22:46:05;;;;;;;3.37;1.40;;;;;;;;;;8302745;28;20811;-57
2022/05/14 22:50:06;;;;;;;2.20;1.50;;;;;;;;;;8304043;28;20601;-57
2022/05/14 22:54:06;;;;;;;5.37;1.40;;;;;;;;;;8304702;28;20029;-57
2022/05/14 22:58:06;;;;;;;2.72;1.55;;;;;;;;;;8303648;28;20260;-57
2022/05/14 23:02:06;;;;;;;4.03;1.70;;;;;;;;;;8302515;28;20041;-58
2022/05/14 23:06:07;;;;;;;3.10;1.60;;;;;;;;;;8301490;28;20353;-57
2022/05/14 23:10:07;;;;;;;4.20;1.60;;;;;;;;;;8301831;28;20047;-57
2022/05/14 23:14:08;;;;;;;3.15;1.70;;;;;;;;;;8302229;28;20521;-57
2022/05/14 23:18:08;;;;;;;2.60;1.20;;;;;;;;;;8303845;28;20060;-57
2022/05/14 23:22:09;;;;;;;2.80;1.40;;;;;;;;;;8301552;28;20029;-57
2022/05/14 23:26:09;;;;;;;3.80;1.30;;;;;;;;;;8304143;28;20909;-57
2022/05/14 23:30:11;;;;;;;4.93;1.45;;;;;;;;;;8303463;28;20029;-57
2022/05/14 23:34:11;;;;;;;4.35;1.40;;;;;;;;;;8302463;28;20020;-57
2022/05/14 23:38:11;;;;;;;4.50;1.75;;;;;;;;;;8303001;28;20497;-57
2022/05/14 23:42:12;;;;;;;6.20;1.65;;;;;;;;;;8309317;28;20827;-57
2022/05/14 23:46:12;;;;;;;6.45;1.70;;;;;;;;;;8307618;28;20037;-57
2022/05/14 23:50:12;;;;;;;6.63;2.13;;;;;;;;;;8308613;28;20021;-57
2022/05/14 23:54:13;;;;;;;4.35;1.67;;;;;;;;;;8308240;28;20515;-57
